Rockwall's Hourly Summary for Sunday, May 13, 2018
Hour Temp
(f)
RH
(%)
Solar Rad.
(MJ/m2)
Rainfall
(in)
Wind
(mph)
5/13/2018 12:00 AM 76 68 0 0 3.6
5/13/2018 1:00 AM 75 72 0 0 4.82
5/13/2018 2:00 AM 75 75 0 0 5.32
5/13/2018 3:00 AM 74 78 0 0 5.7
5/13/2018 4:00 AM 73 81 0 0 5.36
5/13/2018 5:00 AM 72 84 0 0 5.16
5/13/2018 6:00 AM 72 87 0 0 5.05
5/13/2018 7:00 AM 71 91 0.03 0 4.8
5/13/2018 8:00 AM 71 90 0.35 0 4.28
5/13/2018 9:00 AM 73 76 1.06 0 5.92
5/13/2018 10:00 AM 76 71 1.57 0 6.23
5/13/2018 11:00 AM 78 65 1.87 0 6.93
5/13/2018 12:00 PM 79 62 1.89 0 6.42
5/13/2018 1:00 PM 82 59 2.29 0 6.65
5/13/2018 2:00 PM 83 54 2.47 0 7.06
5/13/2018 3:00 PM 85 52 2.29 0 7.35
5/13/2018 4:00 PM 86 51 2.34 0 7
5/13/2018 5:00 PM 86 52 1.6 0 6.99
5/13/2018 6:00 PM 86 51 1.28 0 6.93
5/13/2018 7:00 PM 86 50 0.62 0 6.19
5/13/2018 8:00 PM 84 55 0.09 0 4.68
5/13/2018 9:00 PM 81 58 0 0 2.76
5/13/2018 10:00 PM 79 63 0 0 2.12
5/13/2018 11:00 PM 78 66 0 0 1.94
Data Summary 78 67 19.75 0.00 5.39